Time;durP1;ratioP1;P1;durP2;ratioP2;P2;SDS_P1;SDS_P2;PMS_P1;PMS_P2;Temp;Humidity;BMP_temperature;BMP_pressure;BME280_temperature;BME280_humidity;BME280_pressure;Samples;Min_cycle;Max_cycle;Signal;HPM_P1;HPM_P2
2021/12/26 00:01:04;;;;;;;7.15;3.58;;;-1.70;74.50;;;;;;5042627;28;20063;-93
2021/12/26 00:03:33;;;;;;;7.10;3.85;;;-1.70;74.80;;;;;;5041316;28;20166;-91
2021/12/26 00:06:13;;;;;;;7.68;3.88;;;-1.70;74.60;;;;;;5042939;28;20152;-91
2021/12/26 00:08:40;;;;;;;8.05;4.30;;;-1.80;74.70;;;;;;5060027;28;20032;-91
2021/12/26 00:22:04;;;;;;;9.00;4.38;;;-1.80;75.90;;;;;;5057929;28;20033;-90
2021/12/26 00:24:31;;;;;;;7.45;4.07;;;-1.90;75.70;;;;;;5040898;28;20065;-89
2021/12/26 00:26:56;;;;;;;6.15;3.60;;;-1.90;75.90;;;;;;5024808;28;20064;-91
2021/12/26 00:30:13;;;;;;;7.38;3.70;;;-1.90;75.80;;;;;;5057653;28;20459;-89
2021/12/26 00:39:28;;;;;;;10.40;4.97;;;-1.90;75.90;;;;;;5057819;28;20094;-90
2021/12/26 00:45:17;;;;;;;9.27;4.68;;;-1.90;75.00;;;;;;5057411;28;20040;-91
2021/12/26 00:47:45;;;;;;;7.57;3.70;;;-1.90;75.60;;;;;;5039557;28;20072;-90
2021/12/26 00:50:14;;;;;;;6.32;3.78;;;-1.90;76.10;;;;;;5045218;28;20047;-88
2021/12/26 00:52:41;;;;;;;5.57;3.10;;;-1.90;76.20;;;;;;5041374;28;20391;-90
2021/12/26 00:55:09;;;;;;;6.60;3.00;;;-1.90;76.20;;;;;;5039940;28;20025;-90
2021/12/26 00:57:36;;;;;;;4.70;2.80;;;-1.90;76.00;;;;;;5039526;28;20032;-91
2021/12/26 01:00:05;;;;;;;4.28;2.45;;;-1.90;76.40;;;;;;5039497;28;20471;-89
2021/12/26 01:02:31;;;;;;;4.85;2.80;;;-1.80;76.50;;;;;;5039362;28;20036;-89
2021/12/26 01:04:56;;;;;;;5.03;2.83;;;-1.80;76.10;;;;;;5038992;28;20048;-89
2021/12/26 01:08:04;;;;;;;4.57;2.92;;;-1.80;76.10;;;;;;5038961;28;20040;-90
2021/12/26 01:10:11;;;;;;;5.50;3.30;;;-1.80;76.60;;;;;;5051044;28;20064;-90
2021/12/26 01:12:39;;;;;;;6.00;3.38;;;-1.80;77.30;;;;;;5039864;28;20040;-90
2021/12/26 01:15:09;;;;;;;6.97;3.20;;;-1.80;77.00;;;;;;5061149;28;20032;-90
2021/12/26 01:17:39;;;;;;;5.72;3.10;;;-1.90;77.00;;;;;;5041661;28;20044;-88
2021/12/26 01:20:10;;;;;;;5.90;3.05;;;-1.90;77.50;;;;;;5039515;28;20041;-89
2021/12/26 01:22:37;;;;;;;;;;;-1.90;77.20;;;;;;5039534;28;20036;-91
2021/12/26 01:25:04;;;;;;;6.15;2.90;;;-2.00;75.90;;;;;;5057583;28;19904;-90
2021/12/26 01:27:30;;;;;;;6.90;3.50;;;-2.00;77.00;;;;;;5057501;28;20033;-91
2021/12/26 01:29:55;;;;;;;6.38;3.35;;;-2.10;77.20;;;;;;5056972;28;20095;-90
2021/12/26 01:32:21;;;;;;;6.25;3.15;;;-2.10;77.50;;;;;;5038589;28;20399;-90
2021/12/26 01:34:47;;;;;;;6.93;3.60;;;-2.10;77.80;;;;;;5022473;28;20151;-89
2021/12/26 01:37:13;;;;;;;6.60;3.40;;;-2.10;77.50;;;;;;5038349;28;20183;-89
2021/12/26 01:39:40;;;;;;;6.97;3.83;;;-2.10;78.00;;;;;;5038081;28;20041;-90
2021/12/26 01:42:10;;;;;;;7.47;3.65;;;-2.10;77.50;;;;;;5056182;28;20085;-88
2021/12/26 01:44:37;;;;;;;8.77;4.10;;;-2.10;77.80;;;;;;5056464;28;20037;-89
2021/12/26 01:47:04;;;;;;;7.10;3.90;;;-2.20;78.30;;;;;;5056401;28;20056;-88
2021/12/26 01:49:31;;;;;;;7.97;3.80;;;-2.20;78.60;;;;;;5056579;28;20044;-89
2021/12/26 01:52:02;;;;;;;7.40;3.35;;;-2.20;78.70;;;;;;5056970;28;20136;-89
2021/12/26 01:54:48;;;;;;;8.32;3.55;;;-2.20;78.60;;;;;;5058239;28;20033;-90
2021/12/26 01:57:22;;;;;;;5.78;2.85;;;-2.20;78.50;;;;;;4995405;28;20048;-89
2021/12/26 01:59:48;;;;;;;5.35;2.90;;;-2.20;78.70;;;;;;5031932;28;20043;-88
2021/12/26 02:02:14;;;;;;;5.43;2.90;;;-2.20;78.70;;;;;;5036600;28;20116;-88
2021/12/26 02:08:06;;;;;;;6.25;3.28;;;-2.20;78.90;;;;;;5055585;28;20088;-89
2021/12/26 02:10:32;;;;;;;6.97;3.47;;;-2.30;79.90;;;;;;5055748;28;20095;-89
2021/12/26 02:12:58;;;;;;;6.40;2.95;;;-2.30;80.20;;;;;;5039191;28;20037;-90
2021/12/26 02:15:24;;;;;;;6.00;3.22;;;-2.20;80.10;;;;;;5055774;28;20041;-89
2021/12/26 02:17:50;;;;;;;5.28;3.00;;;-2.20;80.90;;;;;;5038346;28;20390;-90
2021/12/26 02:20:26;;;;;;;7.03;3.15;;;-2.20;79.80;;;;;;5038639;28;20048;-89
2021/12/26 02:22:57;;;;;;;4.88;2.80;;;-2.20;80.60;;;;;;5038501;28;20039;-90
2021/12/26 02:27:52;;;;;;;7.13;3.33;;;-2.20;81.10;;;;;;5056256;28;20037;-90
2021/12/26 02:30:18;;;;;;;7.15;3.38;;;-2.20;80.90;;;;;;5056962;28;20372;-90
2021/12/26 02:32:47;;;;;;;5.50;3.20;;;-2.20;80.90;;;;;;5038211;28;20033;-91
2021/12/26 02:35:13;;;;;;;4.70;2.70;;;-2.20;81.00;;;;;;5056105;28;20482;-90
2021/12/26 02:37:39;;;;;;;5.07;2.80;;;-2.20;81.70;;;;;;5038173;28;20069;-89
2021/12/26 02:40:06;;;;;;;6.20;3.15;;;-2.20;81.10;;;;;;5037539;28;20037;-88
2021/12/26 02:42:32;;;;;;;7.10;2.65;;;-2.20;81.40;;;;;;5055606;28;20040;-89
2021/12/26 02:45:00;;;;;;;5.72;2.95;;;-2.20;81.40;;;;;;5055731;28;20017;-89
2021/12/26 02:47:38;;;;;;;5.20;2.63;;;-2.30;81.50;;;;;;5038003;28;20048;-88
2021/12/26 02:50:10;;;;;;;5.50;2.58;;;-2.30;81.60;;;;;;5021542;28;20392;-88
2021/12/26 02:52:36;;;;;;;5.55;2.70;;;-2.30;82.10;;;;;;5055451;28;20033;-87
2021/12/26 02:55:03;;;;;;;5.28;2.72;;;-2.30;81.90;;;;;;5055834;28;20110;-87
2021/12/26 02:57:29;;;;;;;5.72;2.90;;;-2.30;82.30;;;;;;5056631;28;20044;-89
2021/12/26 02:59:55;;;;;;;5.75;2.85;;;-2.30;82.20;;;;;;5059343;28;20029;-88
2021/12/26 03:02:21;;;;;;;3.97;2.55;;;-2.40;82.50;;;;;;5040781;28;20083;-88
2021/12/26 03:04:47;;;;;;;4.07;2.70;;;-2.40;83.00;;;;;;5038325;28;20049;-88
2021/12/26 03:07:13;;;;;;;4.68;2.80;;;-2.30;82.90;;;;;;5039989;28;20119;-88
2021/12/26 03:09:46;;;;;;;5.43;2.80;;;-2.40;82.20;;;;;;5043614;28;20063;-89
2021/12/26 03:12:12;;;;;;;5.20;2.88;;;-2.40;81.60;;;;;;5060679;28;20099;-89
2021/12/26 03:14:38;;;;;;;6.38;2.88;;;-2.40;81.30;;;;;;5055464;28;20041;-88
2021/12/26 03:17:04;;;;;;;5.80;3.13;;;-2.40;80.80;;;;;;5056050;28;20013;-88
2021/12/26 03:19:36;;;;;;;5.45;3.10;;;-2.40;80.60;;;;;;5037599;28;20033;-88
2021/12/26 03:22:03;;;;;;;4.18;2.70;;;-2.40;80.80;;;;;;5037118;28;20045;-87
2021/12/26 03:24:29;;;;;;;5.65;2.70;;;-2.40;80.70;;;;;;5055038;28;20048;-87
2021/12/26 03:27:01;;;;;;;5.95;2.70;;;-2.50;80.40;;;;;;5036874;28;20159;-87
2021/12/26 03:29:26;;;;;;;5.60;2.65;;;-2.50;80.40;;;;;;5055100;28;20033;-88
2021/12/26 03:31:52;;;;;;;5.00;2.75;;;-2.50;80.20;;;;;;5037332;28;20041;-87
2021/12/26 03:34:18;;;;;;;6.07;2.92;;;-2.50;80.30;;;;;;5041311;28;20041;-87
2021/12/26 03:36:44;;;;;;;5.30;2.83;;;-2.50;80.20;;;;;;5040427;28;20459;-88
2021/12/26 03:39:09;;;;;;;5.68;2.63;;;-2.50;80.40;;;;;;5039116;28;20033;-87
2021/12/26 03:41:35;;;;;;;4.80;2.53;;;-2.60;80.00;;;;;;5039851;28;20037;-88
2021/12/26 03:44:01;;;;;;;5.50;2.83;;;-2.60;80.30;;;;;;5039591;28;20049;-87
2021/12/26 03:46:27;;;;;;;5.55;2.53;;;-2.60;80.30;;;;;;5039834;28;20541;-88
2021/12/26 03:48:53;;;;;;;4.90;2.65;;;-2.60;80.20;;;;;;5057608;28;20108;-88
2021/12/26 03:51:20;;;;;;;5.07;2.70;;;-2.70;80.30;;;;;;5039262;28;20447;-87
2021/12/26 03:53:46;;;;;;;4.57;2.35;;;-2.70;80.50;;;;;;5025773;28;20129;-88
2021/12/26 03:56:12;;;;;;;3.75;2.45;;;-2.70;80.60;;;;;;5023402;28;20064;-88
2021/12/26 03:58:39;;;;;;;5.93;2.53;;;-2.80;80.70;;;;;;5041794;28;20033;-87
2021/12/26 04:01:05;;;;;;;4.40;2.58;;;-2.80;80.50;;;;;;5042217;28;20364;-88
2021/12/26 04:03:30;;;;;;;3.22;2.00;;;-2.80;81.60;;;;;;5042316;28;20122;-89
2021/12/26 04:05:56;;;;;;;5.72;2.60;;;-2.80;81.00;;;;;;5039702;28;20387;-88
2021/12/26 04:08:22;;;;;;;6.38;2.70;;;-2.90;82.00;;;;;;5040103;28;20040;-88
2021/12/26 04:10:47;;;;;;;5.25;2.67;;;-2.90;82.00;;;;;;5057459;28;20071;-86
2021/12/26 04:13:13;;;;;;;4.90;2.90;;;-2.90;81.60;;;;;;5039001;28;20095;-87
2021/12/26 04:15:39;;;;;;;6.68;2.90;;;-2.90;81.40;;;;;;5039292;28;20047;-87
2021/12/26 04:18:05;;;;;;;4.50;2.90;;;-3.00;81.10;;;;;;5039954;28;20468;-87
2021/12/26 04:20:30;;;;;;;6.88;3.30;;;-3.00;81.40;;;;;;5039066;28;20060;-86
2021/12/26 04:22:58;;;;;;;4.95;3.00;;;-3.10;81.80;;;;;;5039948;28;20033;-88
2021/12/26 04:25:24;;;;;;;5.78;3.30;;;-3.20;81.80;;;;;;5040808;28;20356;-88
2021/12/26 04:27:50;;;;;;;5.63;3.30;;;-3.20;82.10;;;;;;5057449;28;20109;-88
2021/12/26 04:30:19;;;;;;;4.78;3.08;;;-3.30;82.70;;;;;;5039724;28;20040;-88
2021/12/26 04:32:45;;;;;;;6.20;3.42;;;-3.40;82.80;;;;;;5039038;28;20036;-88
2021/12/26 04:35:11;;;;;;;6.03;3.42;;;-3.50;83.30;;;;;;5039516;28;20037;-88
2021/12/26 04:37:37;;;;;;;5.20;2.83;;;-3.50;83.30;;;;;;5039047;28;20033;-87
2021/12/26 04:40:08;;;;;;;5.18;3.10;;;-3.60;83.30;;;;;;5056999;28;20037;-88
2021/12/26 04:42:36;;;;;;;6.15;2.95;;;-3.70;83.90;;;;;;5039982;28;20348;-89
2021/12/26 04:45:03;;;;;;;4.88;2.78;;;-3.70;83.40;;;;;;5039182;28;20146;-88
2021/12/26 04:47:29;;;;;;;6.93;2.97;;;-3.80;83.70;;;;;;5039531;28;20041;-87
2021/12/26 04:49:55;;;;;;;6.03;3.10;;;-3.90;83.40;;;;;;5057381;28;20032;-88
2021/12/26 04:52:22;;;;;;;4.95;2.88;;;-4.00;83.60;;;;;;5056801;28;20052;-88
2021/12/26 04:54:48;;;;;;;4.40;2.40;;;-4.00;83.80;;;;;;5038735;28;20033;-88
2021/12/26 04:57:13;;;;;;;5.43;2.70;;;-4.10;83.90;;;;;;5057510;28;20021;-88
2021/12/26 04:59:39;;;;;;;5.80;3.00;;;-4.20;84.80;;;;;;5039551;28;20067;-89
2021/12/26 05:02:08;;;;;;;4.38;2.80;;;-4.30;84.60;;;;;;5040525;28;20029;-89
2021/12/26 05:04:34;;;;;;;3.70;2.55;;;-4.30;84.50;;;;;;5044621;28;20052;-87
2021/12/26 05:07:01;;;;;;;6.55;2.90;;;-4.40;84.40;;;;;;5044384;28;20037;-89
2021/12/26 05:09:26;;;;;;;4.00;2.60;;;-4.50;84.40;;;;;;5039515;28;20041;-89
2021/12/26 05:11:53;;;;;;;5.97;3.58;;;-4.50;84.80;;;;;;5040068;28;20040;-89
2021/12/26 05:14:18;;;;;;;4.65;2.90;;;-4.60;85.80;;;;;;5039260;28;20475;-88
2021/12/26 05:16:44;;;;;;;5.20;3.13;;;-4.60;85.30;;;;;;5039078;28;20044;-88
2021/12/26 05:19:10;;;;;;;6.18;2.75;;;-4.70;86.80;;;;;;5038503;28;20033;-88
2021/12/26 05:21:35;;;;;;;4.78;2.72;;;-4.70;86.20;;;;;;5038420;28;20029;-89
2021/12/26 05:24:01;;;;;;;4.10;2.72;;;-4.80;86.00;;;;;;5056242;28;20068;-88
2021/12/26 05:26:28;;;;;;;4.43;2.50;;;-4.80;86.80;;;;;;5038049;28;20032;-88
2021/12/26 05:28:53;;;;;;;5.18;2.97;;;-4.80;86.50;;;;;;5055547;28;20060;-87
2021/12/26 05:31:19;;;;;;;7.03;3.22;;;-4.80;86.50;;;;;;5039420;28;20483;-88
2021/12/26 05:33:44;;;;;;;10.93;5.00;;;-4.90;87.30;;;;;;5038882;28;20029;-88
2021/12/26 05:36:10;;;;;;;7.10;3.70;;;-4.90;87.90;;;;;;5039391;28;20481;-87
2021/12/26 05:38:36;;;;;;;8.15;4.90;;;-5.00;87.40;;;;;;5038968;28;20068;-88
2021/12/26 05:41:02;;;;;;;9.35;4.63;;;-5.00;88.20;;;;;;5038454;28;20037;-87
2021/12/26 05:43:27;;;;;;;10.38;4.93;;;-5.00;87.50;;;;;;5038807;28;20032;-88
2021/12/26 05:45:53;;;;;;;10.65;4.70;;;-5.00;87.30;;;;;;5056032;28;20029;-87
2021/12/26 05:48:19;;;;;;;10.45;5.30;;;-5.00;87.10;;;;;;5055993;28;20039;-88
2021/12/26 05:50:45;;;;;;;9.45;4.97;;;-5.00;87.10;;;;;;5037820;28;20036;-88
2021/12/26 05:53:10;;;;;;;12.68;6.32;;;-5.10;87.30;;;;;;5038304;28;20083;-88
2021/12/26 05:55:36;;;;;;;12.43;6.07;;;-5.10;87.50;;;;;;5040888;28;20428;-87
2021/12/26 05:58:02;;;;;;;13.23;6.57;;;-5.10;87.80;;;;;;5040517;28;20043;-87
2021/12/26 06:00:28;;;;;;;12.88;6.53;;;-5.10;87.90;;;;;;5040593;28;20045;-87
2021/12/26 06:02:54;;;;;;;13.80;6.03;;;-5.10;88.70;;;;;;5038316;28;20037;-87
2021/12/26 06:05:20;;;;;;;17.02;8.32;;;-5.10;88.40;;;;;;5038314;28;20424;-87
2021/12/26 06:07:46;;;;;;;22.77;9.98;;;-5.10;88.90;;;;;;5040177;28;20049;-87
2021/12/26 06:10:12;;;;;;;23.63;10.15;;;-5.10;88.70;;;;;;5041748;28;20068;-87
2021/12/26 06:12:38;;;;;;;21.88;9.07;;;-5.10;89.40;;;;;;5040223;28;20041;-87
2021/12/26 06:15:04;;;;;;;22.58;8.63;;;-5.10;89.30;;;;;;5038038;28;20044;-87
2021/12/26 06:17:31;;;;;;;27.40;10.32;;;-5.10;89.60;;;;;;5055666;28;20029;-86
2021/12/26 06:19:56;;;;;;;24.63;9.70;;;-5.10;89.50;;;;;;5055461;28;20032;-87
2021/12/26 06:22:22;;;;;;;25.08;10.32;;;-5.00;89.60;;;;;;5037071;28;20037;-88
2021/12/26 06:24:47;;;;;;;27.60;10.55;;;-5.00;89.60;;;;;;5037550;28;20044;-87
2021/12/26 06:27:13;;;;;;;37.08;11.48;;;-5.00;90.10;;;;;;5055487;28;20064;-87
2021/12/26 06:29:39;;;;;;;36.08;13.65;;;-5.00;89.90;;;;;;5037878;28;20037;-88
2021/12/26 06:32:05;;;;;;;37.00;13.40;;;-4.90;89.90;;;;;;5037739;28;20049;-86
2021/12/26 06:34:32;;;;;;;38.85;13.43;;;-4.90;89.80;;;;;;5037383;28;20110;-89
2021/12/26 06:36:58;;;;;;;34.33;12.82;;;-4.80;89.80;;;;;;5037609;28;20037;-88
2021/12/26 06:39:26;;;;;;;39.67;14.82;;;-4.80;89.70;;;;;;5037927;28;20029;-88
2021/12/26 06:41:51;;;;;;;50.35;18.42;;;-4.70;89.80;;;;;;5055499;28;20033;-88
2021/12/26 06:44:20;;;;;;;43.15;14.98;;;-4.70;89.80;;;;;;5059748;28;20383;-88
2021/12/26 06:46:46;;;;;;;62.72;22.02;;;-4.60;90.00;;;;;;5037611;28;20037;-88
2021/12/26 06:49:14;;;;;;;50.50;22.45;;;-4.60;90.00;;;;;;5056391;28;20448;-88
2021/12/26 06:51:40;;;;;;;37.65;16.73;;;-4.50;90.00;;;;;;5038351;28;20037;-90
2021/12/26 06:54:09;;;;;;;25.17;12.10;;;-4.50;90.00;;;;;;5039111;28;20083;-88
2021/12/26 06:56:35;;;;;;;22.15;10.85;;;-4.40;89.80;;;;;;5037145;28;20037;-88
2021/12/26 06:59:03;;;;;;;15.35;7.38;;;-4.30;90.20;;;;;;5055961;28;20041;-88
2021/12/26 07:01:30;;;;;;;12.63;6.35;;;-4.10;92.20;;;;;;5058298;28;20044;-87
2021/12/26 07:04:28;;;;;;;10.85;5.63;;;-3.70;93.50;;;;;;5057161;28;20044;-89
2021/12/26 07:06:54;;;;;;;10.57;5.22;;;-3.20;92.20;;;;;;5037778;28;20021;-90
2021/12/26 07:09:21;;;;;;;12.20;5.45;;;-2.70;92.90;;;;;;5058793;28;20040;-88
2021/12/26 07:11:48;;;;;;;9.73;5.10;;;-2.20;91.80;;;;;;5044026;28;20036;-87
2021/12/26 07:14:14;;;;;;;9.38;4.90;;;-1.80;91.60;;;;;;5045800;28;20041;-87
2021/12/26 07:16:42;;;;;;;10.77;5.85;;;-1.40;90.30;;;;;;5029622;28;20053;-90
2021/12/26 07:19:10;;;;;;;9.20;4.53;;;-1.00;87.10;;;;;;5043073;28;20037;-89
2021/12/26 07:21:37;;;;;;;9.70;4.68;;;-0.60;86.20;;;;;;5041455;28;20033;-87
2021/12/26 07:24:04;;;;;;;8.75;4.97;;;-0.30;87.40;;;;;;5040374;28;20037;-86
2021/12/26 07:26:29;;;;;;;10.93;5.18;;;0.10;85.20;;;;;;5040344;28;20040;-86
2021/12/26 07:28:55;;;;;;;9.68;5.70;;;0.50;82.50;;;;;;5040017;28;20037;-89
2021/12/26 07:31:23;;;;;;;11.15;5.10;;;0.80;79.00;;;;;;5058684;28;20538;-87
2021/12/26 07:33:49;;;;;;;9.13;4.97;;;1.00;79.00;;;;;;5059186;28;20048;-87
2021/12/26 07:36:15;;;;;;;10.80;5.50;;;1.20;76.70;;;;;;5040921;28;20530;-86
2021/12/26 07:38:42;;;;;;;12.85;8.00;;;1.40;76.00;;;;;;5040928;28;20071;-88
2021/12/26 07:41:07;;;;;;;12.07;7.68;;;1.50;74.20;;;;;;5040271;28;20471;-88
2021/12/26 07:53:59;;;;;;;11.18;5.38;;;2.50;70.10;;;;;;5058590;28;20091;-85
2021/12/26 08:00:06;;;;;;;8.32;4.50;;;2.90;68.30;;;;;;5058868;28;20097;-86
2021/12/26 08:02:32;;;;;;;8.05;4.25;;;3.20;69.30;;;;;;5039768;28;20040;-84
2021/12/26 08:04:57;;;;;;;7.55;3.63;;;3.30;69.30;;;;;;5039742;28;20447;-85
2021/12/26 08:07:23;;;;;;;8.88;4.88;;;3.70;70.40;;;;;;5040527;28;20071;-89
2021/12/26 08:09:49;;;;;;;9.40;4.90;;;4.00;69.80;;;;;;5040723;28;20495;-87
2021/12/26 08:12:15;;;;;;;10.88;4.68;;;4.20;69.00;;;;;;5023892;28;20045;-87
2021/12/26 08:14:50;;;;;;;8.77;4.95;;;4.50;67.90;;;;;;5058761;28;20037;-87
2021/12/26 08:20:37;;;;;;;8.40;4.28;;;4.90;61.20;;;;;;5059292;28;20027;-86
2021/12/26 08:26:27;;;;;;;6.68;3.90;;;5.40;64.50;;;;;;5062383;28;20055;-92
2021/12/26 08:28:52;;;;;;;7.22;3.83;;;5.70;64.40;;;;;;5030210;28;20102;-95
2021/12/26 08:31:21;;;;;;;9.15;3.67;;;6.00;62.90;;;;;;5064801;28;20045;-90
2021/12/26 08:33:46;;;;;;;6.60;3.60;;;6.00;62.50;;;;;;5040974;28;20464;-90
2021/12/26 08:36:12;;;;;;;6.43;3.33;;;6.20;62.50;;;;;;5057093;28;20032;-85
2021/12/26 08:38:39;;;;;;;6.65;3.53;;;6.40;60.60;;;;;;5061232;28;20519;-93
2021/12/26 08:41:06;;;;;;;5.80;3.50;;;6.50;59.10;;;;;;5059617;28;20107;-92
2021/12/26 08:43:31;;;;;;;7.30;3.90;;;6.60;59.30;;;;;;5061116;28;20033;-91
2021/12/26 08:45:57;;;;;;;5.95;3.35;;;6.70;57.90;;;;;;5043987;28;20040;-92
2021/12/26 08:48:24;;;;;;;5.93;3.20;;;6.60;58.20;;;;;;5059726;28;20033;-92
2021/12/26 08:50:55;;;;;;;5.68;3.20;;;6.70;57.80;;;;;;5040610;28;20056;-88
2021/12/26 08:53:25;;;;;;;6.32;2.90;;;6.80;57.60;;;;;;5042533;28;20037;-88
2021/12/26 08:55:52;;;;;;;5.95;3.53;;;6.90;58.30;;;;;;5040528;28;20033;-87
2021/12/26 08:58:18;;;;;;;9.02;5.10;;;7.10;57.70;;;;;;5040576;28;20087;-92
2021/12/26 09:00:44;;;;;;;7.50;4.28;;;7.10;54.90;;;;;;5026049;28;20045;-94
2021/12/26 09:03:10;;;;;;;6.93;4.10;;;7.30;56.40;;;;;;5041511;28;20041;-93
2021/12/26 09:05:35;;;;;;;6.68;3.90;;;7.50;54.10;;;;;;5041598;28;20041;-90
2021/12/26 09:08:06;;;;;;;10.82;4.57;;;7.60;54.10;;;;;;5039483;28;20379;-89
2021/12/26 09:10:32;;;;;;;7.05;3.78;;;7.60;53.90;;;;;;5040433;28;20048;-88
2021/12/26 09:12:58;;;;;;;8.38;4.03;;;7.80;53.90;;;;;;5040104;28;20037;-90
2021/12/26 09:15:25;;;;;;;6.65;3.25;;;8.20;53.80;;;;;;5039049;28;20517;-89
2021/12/26 09:17:52;;;;;;;8.57;4.85;;;8.30;54.10;;;;;;5060066;28;20438;-95
2021/12/26 09:20:18;;;;;;;9.38;5.18;;;8.50;53.50;;;;;;5038048;28;20605;-88
2021/12/26 09:22:44;;;;;;;10.75;5.65;;;8.60;52.60;;;;;;5026479;28;20087;-87
2021/12/26 09:25:12;;;;;;;7.88;4.63;;;8.70;51.70;;;;;;5034430;28;20036;-85
2021/12/26 09:27:38;;;;;;;7.72;4.30;;;9.00;52.40;;;;;;5024810;28;20501;-82
2021/12/26 09:30:06;;;;;;;6.90;4.10;;;9.20;51.00;;;;;;5033164;28;20124;-86
2021/12/26 09:32:32;;;;;;;7.43;4.30;;;9.30;49.30;;;;;;5018450;28;20096;-89
2021/12/26 09:34:58;;;;;;;8.65;4.95;;;9.20;48.70;;;;;;5025930;28;20060;-90
2021/12/26 09:37:26;;;;;;;7.45;4.72;;;9.00;48.10;;;;;;5026910;28;20140;-89
2021/12/26 09:39:53;;;;;;;7.50;4.63;;;9.00;48.90;;;;;;5033953;28;20553;-86
2021/12/26 09:42:19;;;;;;;8.65;5.13;;;9.10;49.70;;;;;;5055482;28;20025;-84
2021/12/26 09:44:45;;;;;;;9.20;4.90;;;9.10;48.90;;;;;;5036555;28;20044;-84
2021/12/26 09:47:12;;;;;;;9.10;4.68;;;9.30;48.60;;;;;;5036783;28;20037;-85
2021/12/26 09:49:38;;;;;;;7.55;4.13;;;9.40;47.80;;;;;;5036907;28;20040;-83
2021/12/26 09:52:06;;;;;;;12.40;4.22;;;9.60;48.40;;;;;;5036620;28;20033;-84
2021/12/26 09:54:32;;;;;;;8.95;4.10;;;9.50;46.70;;;;;;5054601;28;20071;-84
2021/12/26 09:56:57;;;;;;;7.75;3.67;;;9.70;48.50;;;;;;5036196;28;20028;-83
2021/12/26 09:59:23;;;;;;;6.65;3.60;;;9.80;46.70;;;;;;5035687;28;20029;-85
2021/12/26 10:01:52;;;;;;;6.20;3.45;;;9.80;46.20;;;;;;5054051;28;20044;-84
2021/12/26 10:04:20;;;;;;;5.80;3.20;;;9.90;45.10;;;;;;5054124;28;20128;-84
2021/12/26 10:06:50;;;;;;;6.05;3.00;;;9.80;45.30;;;;;;5035572;28;20037;-85
2021/12/26 10:09:18;;;;;;;5.63;2.97;;;9.90;45.60;;;;;;5054597;28;20104;-84
2021/12/26 10:11:56;;;;;;;6.07;3.10;;;10.20;46.30;;;;;;5036159;28;20037;-86
2021/12/26 10:14:30;;;;;;;6.30;3.03;;;10.40;45.00;;;;;;5036695;28;20045;-84
2021/12/26 10:17:06;;;;;;;4.60;2.85;;;10.60;44.70;;;;;;5037024;28;20036;-84
2021/12/26 10:19:33;;;;;;;6.45;3.05;;;10.50;44.50;;;;;;5054383;28;20056;-85
2021/12/26 10:22:01;;;;;;;7.80;3.50;;;10.60;44.40;;;;;;5054490;28;20040;-84
2021/12/26 10:24:29;;;;;;;6.18;3.28;;;10.60;44.30;;;;;;5054415;28;20044;-85
2021/12/26 10:26:57;;;;;;;6.45;2.88;;;10.50;43.70;;;;;;5037311;28;20468;-86
2021/12/26 10:29:27;;;;;;;6.75;2.80;;;10.50;43.30;;;;;;5036227;28;20029;-83
2021/12/26 10:32:04;;;;;;;5.05;2.65;;;10.40;42.50;;;;;;5036047;28;20040;-84
2021/12/26 10:34:42;;;;;;;6.40;2.80;;;10.30;43.20;;;;;;5036493;28;20115;-84
2021/12/26 10:37:13;;;;;;;6.32;2.70;;;10.30;43.10;;;;;;5036038;28;20044;-85
2021/12/26 10:39:57;;;;;;;5.82;2.90;;;10.20;43.80;;;;;;5036836;28;20194;-84
2021/12/26 10:42:28;;;;;;;5.45;2.90;;;10.50;41.60;;;;;;5036529;28;20376;-84
2021/12/26 10:44:59;;;;;;;7.40;3.20;;;10.60;43.80;;;;;;5055026;28;20033;-84
2021/12/26 10:47:28;;;;;;;6.72;3.17;;;10.90;43.30;;;;;;5055425;28;20033;-85
2021/12/26 10:50:05;;;;;;;5.82;3.13;;;11.20;43.10;;;;;;5054309;28;20033;-83
2021/12/26 10:52:39;;;;;;;5.10;2.75;;;11.40;43.00;;;;;;5054749;28;20037;-85
2021/12/26 10:55:09;;;;;;;5.57;2.60;;;11.50;42.00;;;;;;5054172;28;20029;-85
2021/12/26 10:57:40;;;;;;;6.07;3.03;;;11.70;42.00;;;;;;5035905;28;20061;-84
2021/12/26 11:00:09;;;;;;;5.95;2.95;;;11.50;40.90;;;;;;5054169;28;20116;-86
2021/12/26 11:02:36;;;;;;;4.70;3.10;;;11.40;40.30;;;;;;5036951;28;20029;-84
2021/12/26 11:05:07;;;;;;;4.70;2.80;;;11.50;41.30;;;;;;5036338;28;20041;-85
2021/12/26 11:07:49;;;;;;;5.47;2.85;;;11.40;40.70;;;;;;5036149;28;20127;-84
2021/12/26 11:10:20;;;;;;;4.78;2.88;;;11.50;38.60;;;;;;5054173;28;20037;-84
2021/12/26 11:12:49;;;;;;;;;;;11.70;40.80;;;;;;5037550;28;20033;-84
2021/12/26 11:15:17;;;;;;;4.78;3.17;;;11.60;35.40;;;;;;5053990;28;19995;-84
2021/12/26 11:17:47;;;;;;;14.07;6.03;;;11.90;41.00;;;;;;5036874;28;20036;-84
2021/12/26 11:20:43;;;;;;;16.20;7.68;;;12.30;39.50;;;;;;5036778;28;20029;-85
2021/12/26 11:23:18;;;;;;;12.05;5.90;;;12.00;38.10;;;;;;5033739;28;20145;-84
2021/12/26 11:25:56;;;;;;;10.57;5.70;;;11.60;38.80;;;;;;5038190;28;20068;-84
2021/12/26 11:28:26;;;;;;;12.85;6.20;;;11.70;39.60;;;;;;5036955;28;20041;-85
2021/12/26 11:31:03;;;;;;;11.35;5.85;;;11.80;39.30;;;;;;5036732;28;20156;-84
2021/12/26 11:33:29;;;;;;;10.57;5.22;;;11.70;38.50;;;;;;5036075;28;20048;-84
2021/12/26 11:35:57;;;;;;;9.43;4.88;;;11.60;39.20;;;;;;5036154;28;20033;-84
2021/12/26 11:38:24;;;;;;;13.18;6.32;;;11.60;39.20;;;;;;5035607;28;20041;-83
2021/12/26 11:40:54;;;;;;;8.50;4.93;;;11.60;38.60;;;;;;5035292;28;20498;-83
2021/12/26 11:43:25;;;;;;;10.63;5.93;;;11.50;38.50;;;;;;5035329;28;20045;-84
2021/12/26 11:46:29;;;;;;;5.90;4.10;;;11.20;38.00;;;;;;5036362;28;20030;-84
2021/12/26 11:49:34;;;;;;;5.10;3.10;;;10.90;38.70;;;;;;4953112;29;20063;-83
2021/12/26 11:52:00;;;;;;;5.32;2.78;;;10.90;37.80;;;;;;5035696;28;20044;-83
2021/12/26 11:54:43;;;;;;;3.97;2.33;;;10.80;39.00;;;;;;5037500;28;20033;-84
2021/12/26 11:57:46;;;;;;;4.50;2.83;;;10.90;39.00;;;;;;5056367;28;20073;-83
2021/12/26 12:00:29;;;;;;;4.78;2.65;;;11.00;38.00;;;;;;4984965;28;20061;-85
2021/12/26 12:03:00;;;;;;;5.43;3.10;;;11.10;39.20;;;;;;5039034;28;20099;-86
2021/12/26 12:05:25;;;;;;;;;;;11.40;38.60;;;;;;5039686;28;20588;-84
2021/12/26 12:08:00;;;;;;;5.90;2.55;;;11.40;37.40;;;;;;5056792;28;19924;-85
2021/12/26 12:10:35;;;;;;;4.90;3.05;;;11.70;38.50;;;;;;5039124;28;20033;-85
2021/12/26 12:13:03;;;;;;;5.28;3.25;;;11.90;38.00;;;;;;5056800;28;20467;-84
2021/12/26 12:15:47;;;;;;;5.60;3.42;;;11.90;37.80;;;;;;5056521;28;20217;-85
2021/12/26 12:18:20;;;;;;;5.80;3.40;;;11.80;37.60;;;;;;5038645;28;20061;-84
2021/12/26 12:20:48;;;;;;;6.72;3.80;;;11.50;37.10;;;;;;5039032;28;20040;-83
2021/12/26 12:23:19;;;;;;;6.38;3.00;;;11.30;37.50;;;;;;5038145;28;20468;-83
2021/12/26 12:25:52;;;;;;;;;;;11.10;37.90;;;;;;5039213;28;20033;-84
2021/12/26 12:28:26;;;;;;;5.28;3.22;;;10.90;36.70;;;;;;5059245;28;20351;-83
2021/12/26 12:31:12;;;;;;;6.18;3.03;;;10.70;37.40;;;;;;5057370;28;20537;-83
2021/12/26 12:33:39;;;;;;;6.95;3.42;;;10.50;35.70;;;;;;5056045;28;20083;-82
2021/12/26 12:36:13;;;;;;;6.88;3.50;;;10.20;38.30;;;;;;5038366;28;20040;-84
2021/12/26 12:38:41;;;;;;;6.95;3.67;;;10.10;37.20;;;;;;5038428;28;20040;-83
2021/12/26 12:41:28;;;;;;;6.13;3.85;;;9.70;37.60;;;;;;5041950;28;20037;-84
2021/12/26 12:43:55;;;;;;;5.13;3.15;;;9.30;37.60;;;;;;5057282;28;20036;-84
2021/12/26 12:46:21;;;;;;;8.75;3.75;;;8.90;38.50;;;;;;5055746;28;20044;-83
2021/12/26 12:48:59;;;;;;;5.57;2.83;;;8.60;38.80;;;;;;5038480;28;20505;-83
2021/12/26 12:51:29;;;;;;;5.25;2.97;;;8.20;39.40;;;;;;5055735;28;20041;-82
2021/12/26 12:54:19;;;;;;;5.25;3.28;;;7.80;40.00;;;;;;5055644;28;20416;-82
2021/12/26 12:56:45;;;;;;;5.82;3.13;;;7.50;40.20;;;;;;5023886;28;20116;-83
2021/12/26 13:01:42;;;;;;;6.75;3.70;;;6.60;40.90;;;;;;5055855;28;20041;-83
2021/12/26 13:04:09;;;;;;;7.45;3.78;;;6.20;41.40;;;;;;5055913;28;20059;-83
2021/12/26 13:06:35;;;;;;;6.32;3.65;;;6.00;42.20;;;;;;5036909;28;20041;-84
2021/12/26 13:09:02;;;;;;;6.97;3.45;;;5.90;42.50;;;;;;5038516;28;20372;-83
2021/12/26 13:11:30;;;;;;;5.78;3.10;;;5.90;42.70;;;;;;5038218;28;20077;-83
2021/12/26 13:13:57;;;;;;;5.85;2.80;;;5.90;42.80;;;;;;5055998;28;20112;-83
2021/12/26 13:16:30;;;;;;;5.97;3.10;;;5.90;43.00;;;;;;5055600;28;20041;-84
2021/12/26 13:19:06;;;;;;;4.55;2.50;;;6.10;42.90;;;;;;5055049;28;20058;-83
2021/12/26 13:21:32;;;;;;;6.13;3.00;;;6.10;42.70;;;;;;5037466;28;20036;-83
2021/12/26 13:23:58;;;;;;;5.75;3.13;;;5.80;42.70;;;;;;5037009;28;20040;-82
2021/12/26 13:26:24;;;;;;;5.90;2.88;;;5.50;43.40;;;;;;5040109;28;20041;-83
2021/12/26 13:28:50;;;;;;;6.95;3.30;;;5.30;43.60;;;;;;5055207;28;20459;-82
2021/12/26 13:31:17;;;;;;;5.70;2.60;;;5.10;43.70;;;;;;5055002;28;20033;-82
2021/12/26 13:33:49;;;;;;;7.65;2.67;;;4.50;43.90;;;;;;5055664;28;20371;-83
2021/12/26 13:36:17;;;;;;;5.70;2.72;;;3.90;44.50;;;;;;5036848;28;20040;-82
2021/12/26 13:38:43;;;;;;;5.40;2.67;;;3.30;45.20;;;;;;5036474;28;20111;-84
2021/12/26 13:41:13;;;;;;;5.20;3.10;;;2.80;46.00;;;;;;5055089;28;20064;-83
2021/12/26 13:43:42;;;;;;;4.18;2.45;;;2.30;46.90;;;;;;5037231;28;20029;-82
2021/12/26 13:46:09;;;;;;;5.10;2.67;;;1.80;47.80;;;;;;5054845;28;20111;-82